createdAt,value
2019-01-22T00:01:53.821Z,100809.57
2019-01-22T00:04:22.450Z,100807.41
2019-01-22T00:06:51.076Z,100810.17
2019-01-22T00:09:19.838Z,100811.05
2019-01-22T00:11:48.445Z,100802.91
2019-01-22T00:14:18.813Z,100802.91
2019-01-22T00:16:47.435Z,100805.26
2019-01-22T00:19:35.282Z,100799.59
2019-01-22T00:22:03.913Z,100797.90
2019-01-22T00:24:34.318Z,100794.94
2019-01-22T00:27:02.958Z,100779.73
2019-01-22T00:29:31.701Z,100778.74
2019-01-22T00:32:00.346Z,100775.97
2019-01-22T00:34:28.987Z,100772.69
2019-01-22T00:36:57.699Z,100769.66
2019-01-22T00:39:26.347Z,100763.59
2019-01-22T00:41:55.077Z,100756.34
2019-01-22T00:44:23.728Z,100757.32
2019-01-22T00:46:52.427Z,100756.87
2019-01-22T00:49:21.090Z,100755.70
2019-01-22T00:51:51.530Z,100753.66
2019-01-22T00:54:20.205Z,100746.40
2019-01-22T00:56:48.805Z,100750.06
2019-01-22T00:59:17.443Z,100752.34
2019-01-22T01:01:46.139Z,100745.84
2019-01-22T01:04:14.872Z,100747.59
2019-01-22T01:06:43.507Z,100742.17
2019-01-22T01:09:12.280Z,100741.11
2019-01-22T01:11:40.941Z,100736.66
2019-01-22T01:14:09.662Z,100729.25
2019-01-22T01:16:38.347Z,100729.94
2019-01-22T01:19:07.144Z,100733.55
2019-01-22T01:21:35.833Z,100731.00
2019-01-22T01:24:04.648Z,100727.81
2019-01-22T01:26:33.365Z,100724.14
2019-01-22T01:29:02.164Z,100721.67
2019-01-22T01:31:30.868Z,100723.92
2019-01-22T01:36:45.971Z,100721.46
2019-01-22T01:39:14.602Z,100714.73
2019-01-22T01:41:43.224Z,100722.05
2019-01-22T01:44:11.927Z,100713.58
2019-01-22T01:46:40.702Z,100712.30
2019-01-22T01:49:09.429Z,100708.63
2019-01-22T01:51:38.054Z,100711.54
2019-01-22T01:54:06.732Z,100709.52
2019-01-22T01:56:35.390Z,100709.98
2019-01-22T02:02:12.540Z,100700.47
2019-01-22T02:04:41.170Z,100694.94
2019-01-22T02:07:11.556Z,100691.02
2019-01-22T02:09:40.142Z,100686.31
2019-01-22T02:12:08.766Z,100683.32
2019-01-22T02:14:42.564Z,100678.13
2019-01-22T02:17:16.502Z,100676.59
2019-01-22T02:20:11.698Z,100677.91
2019-01-22T02:23:18.824Z,100671.80
2019-01-22T02:26:00.079Z,100667.98
2019-01-22T02:29:07.202Z,100660.08
2019-01-22T02:32:07.577Z,100650.76
2019-01-22T02:35:14.663Z,100650.47
2019-01-22T02:38:21.799Z,100646.87
2019-01-22T02:41:28.948Z,100642.61
2019-01-22T02:44:36.043Z,100624.84
2019-01-22T02:47:27.734Z,100617.06
2019-01-22T02:50:20.408Z,100606.83
2019-01-22T02:53:13.368Z,100601.93
2019-01-22T02:56:20.452Z,100595.69
2019-01-22T02:59:27.587Z,100590.04
2019-01-22T03:02:34.741Z,100590.34
2019-01-22T03:05:35.555Z,100588.44
2019-01-22T03:08:28.987Z,100576.67
2019-01-22T03:11:14.113Z,100571.35
2019-01-22T03:14:08.501Z,100571.35
2019-01-22T03:17:15.632Z,100565.88
2019-01-22T03:20:22.761Z,100564.64
2019-01-22T03:23:29.877Z,100567.71
2019-01-22T03:26:37.004Z,100564.94
2019-01-22T03:29:44.128Z,100553.05
2019-01-22T03:32:51.251Z,100545.80
2019-01-22T03:35:43.872Z,100540.84
2019-01-22T03:38:20.500Z,100535.28
2019-01-22T03:41:27.615Z,100538.16
2019-01-22T03:44:34.727Z,100528.33
2019-01-22T03:47:42.101Z,100532.44
2019-01-22T03:50:43.469Z,100525.48
2019-01-22T03:53:53.779Z,100526.48
2019-01-22T03:56:59.446Z,100522.05
2019-01-22T03:59:28.427Z,100522.20
2019-01-22T04:01:57.074Z,100516.65
2019-01-22T04:04:25.717Z,100517.78
2019-01-22T04:06:59.745Z,100515.97
2019-01-22T04:09:34.764Z,100509.70
2019-01-22T04:12:03.370Z,100502.84
2019-01-22T04:14:32.002Z,100491.78
2019-01-22T04:17:00.706Z,100486.98
2019-01-22T04:19:29.356Z,100489.35
2019-01-22T04:21:57.995Z,100486.84
2019-01-22T04:25:05.205Z,100480.36
2019-01-22T04:27:55.877Z,100477.15
2019-01-22T04:31:03.006Z,100473.48
2019-01-22T04:34:10.499Z,100476.45
2019-01-22T04:37:17.613Z,100471.13
2019-01-22T04:40:13.410Z,100461.52
2019-01-22T04:43:20.454Z,100462.50
2019-01-22T04:45:54.175Z,100464.55
2019-01-22T04:48:49.727Z,100459.28
2019-01-22T04:51:40.459Z,100454.09
2019-01-22T04:54:47.585Z,100456.81
2019-01-22T04:57:38.059Z,100448.98
2019-01-22T05:00:45.179Z,100456.44
2019-01-22T05:03:52.280Z,100449.03
2019-01-22T05:06:55.445Z,100449.41
2019-01-22T05:10:00.371Z,100456.22
2019-01-22T05:12:56.818Z,100443.63
2019-01-22T05:15:54.768Z,100443.56
2019-01-22T05:19:01.895Z,100433.98
2019-01-22T05:22:09.018Z,100434.62
2019-01-22T05:25:16.130Z,100432.72
2019-01-22T05:28:23.233Z,100424.73
2019-01-22T05:31:03.420Z,100436.51
2019-01-22T05:34:12.241Z,100425.06
2019-01-22T05:36:51.257Z,100425.16
2019-01-22T05:39:46.433Z,100425.47
2019-01-22T05:42:53.562Z,100422.81
2019-01-22T05:45:41.784Z,100417.86
2019-01-22T05:48:42.739Z,100414.66
2019-01-22T05:51:33.434Z,100417.88
2019-01-22T05:54:42.293Z,100412.97
2019-01-22T05:57:49.411Z,100410.06
2019-01-22T06:00:56.568Z,100406.91
2019-01-22T06:03:48.963Z,100403.67
2019-01-22T06:06:43.144Z,100403.09
2019-01-22T06:09:30.491Z,100402.62
2019-01-22T06:12:37.603Z,100395.92
2019-01-22T06:15:44.702Z,100397.22
2019-01-22T06:18:51.817Z,100386.37
2019-01-22T06:21:58.980Z,100384.22
2019-01-22T06:25:06.130Z,100380.52
2019-01-22T06:27:39.294Z,100384.96
2019-01-22T06:30:21.393Z,100389.80
2019-01-22T06:33:28.581Z,100384.06
2019-01-22T06:36:35.690Z,100381.72
2019-01-22T06:39:42.790Z,100383.58
2019-01-22T06:42:49.912Z,100385.81
2019-01-22T06:45:57.038Z,100365.44
2019-01-22T06:49:04.167Z,100374.19
2019-01-22T06:52:11.291Z,100377.52
2019-01-22T06:55:18.416Z,100376.47
2019-01-22T06:58:25.540Z,100375.83
2019-01-22T07:01:32.651Z,100373.61
2019-01-22T07:04:39.769Z,100382.09
2019-01-22T07:07:46.883Z,100382.55
2019-01-22T07:10:38.098Z,100365.69
2019-01-22T07:13:45.236Z,100368.11
2019-01-22T07:16:52.370Z,100369.06
2019-01-22T07:19:45.775Z,100365.54
2019-01-22T07:22:52.899Z,100367.60
2019-01-22T07:26:00.026Z,100373.45
2019-01-22T07:28:54.351Z,100374.09
2019-01-22T07:31:37.423Z,100364.69
2019-01-22T07:34:30.110Z,100377.16
2019-01-22T07:37:37.237Z,100376.70
2019-01-22T07:40:28.757Z,100377.43
2019-01-22T07:43:28.883Z,100372.41
2019-01-22T07:46:25.050Z,100371.56
2019-01-22T07:49:18.389Z,100368.76
2019-01-22T07:52:10.975Z,100368.67
2019-01-22T07:55:03.642Z,100362.27
2019-01-22T07:58:10.786Z,100359.28
2019-01-22T08:01:11.534Z,100363.05
2019-01-22T08:04:37.650Z,100352.23
2019-01-22T08:07:49.985Z,100346.89
2019-01-22T08:10:57.097Z,100347.17
2019-01-22T08:13:35.258Z,100339.42
2019-01-22T08:16:42.384Z,100342.09
2019-01-22T08:19:49.485Z,100332.63
2019-01-22T08:22:56.670Z,100329.18
2019-01-22T08:26:03.818Z,100325.72
2019-01-22T08:29:10.936Z,100321.59
2019-01-22T08:32:18.078Z,100319.59
2019-01-22T08:35:25.214Z,100318.10
2019-01-22T08:38:32.417Z,100320.84
2019-01-22T08:41:25.350Z,100322.45
2019-01-22T08:44:07.166Z,100320.27
2019-01-22T08:47:14.273Z,100307.12
2019-01-22T08:50:09.457Z,100302.88
2019-01-22T08:53:16.562Z,100299.20
2019-01-22T08:56:13.116Z,100295.79
2019-01-22T08:59:20.252Z,100298.09
2019-01-22T09:02:13.376Z,100289.27
2019-01-22T09:05:20.509Z,100291.38
2019-01-22T09:08:27.673Z,100293.52
2019-01-22T09:11:34.779Z,100282.30
2019-01-22T09:14:17.058Z,100277.97
2019-01-22T09:17:10.547Z,100282.19
2019-01-22T09:20:17.658Z,100281.92
2019-01-22T09:23:24.784Z,100276.24
2019-01-22T09:26:16.753Z,100266.41
2019-01-22T09:29:23.887Z,100271.71
2019-01-22T09:32:15.950Z,100268.40
2019-01-22T09:35:23.069Z,100255.20
2019-01-22T09:37:59.765Z,100259.56
2019-01-22T09:40:28.465Z,100250.48
2019-01-22T09:42:57.185Z,100250.72
2019-01-22T09:45:26.021Z,100247.52
2019-01-22T09:47:54.658Z,100249.94
2019-01-22T09:50:23.378Z,100238.84
2019-01-22T09:52:52.016Z,100237.80
2019-01-22T09:55:22.589Z,100230.14
2019-01-22T09:57:51.193Z,100233.53
2019-01-22T10:00:20.851Z,100236.08
2019-01-22T10:02:49.544Z,100230.20
2019-01-22T10:05:18.263Z,100225.55
2019-01-22T10:07:46.879Z,100230.59
2019-01-22T10:10:56.319Z,100217.81
2019-01-22T10:13:25.025Z,100201.48
2019-01-22T10:18:48.794Z,100200.75
2019-01-22T10:21:17.526Z,100212.84
2019-01-22T10:23:46.931Z,100213.59
2019-01-22T10:26:16.588Z,100198.52
2019-01-22T10:28:45.231Z,100195.78
2019-01-22T10:31:13.962Z,100195.23
2019-01-22T10:33:42.802Z,100186.58
2019-01-22T10:36:11.586Z,100192.06
2019-01-22T10:38:40.207Z,100187.64
2019-01-22T10:41:08.839Z,100181.48
2019-01-22T10:43:37.538Z,100183.34
2019-01-22T10:46:06.366Z,100179.67
2019-01-22T10:48:34.999Z,100177.17
2019-01-22T10:51:03.866Z,100173.50
2019-01-22T10:53:32.484Z,100164.12
2019-01-22T10:56:01.136Z,100165.42
2019-01-22T10:58:29.820Z,100154.02
2019-01-22T11:00:58.629Z,100149.00
2019-01-22T11:03:27.267Z,100151.15
2019-01-22T11:05:55.961Z,100141.26
2019-01-22T11:08:24.590Z,100138.13
2019-01-22T11:10:53.214Z,100135.98
2019-01-22T11:13:21.826Z,100128.94
2019-01-22T11:15:50.630Z,100124.68
2019-01-22T11:18:19.319Z,100111.37
2019-01-22T11:20:47.962Z,100103.59
2019-01-22T11:23:16.620Z,100096.89
2019-01-22T11:25:45.322Z,100093.78
2019-01-22T11:28:13.979Z,100093.57
2019-01-22T11:30:42.593Z,100084.70
2019-01-22T11:33:11.266Z,100076.84
2019-01-22T11:35:39.880Z,100068.11
2019-01-22T11:38:12.688Z,100068.41
2019-01-22T11:40:43.078Z,100058.90
2019-01-22T11:43:12.603Z,100049.45
2019-01-22T11:45:41.291Z,100051.64
2019-01-22T11:48:11.183Z,100038.69
2019-01-22T11:50:39.860Z,100035.41
2019-01-22T11:53:11.200Z,100026.65
2019-01-22T11:55:40.006Z,100034.42
2019-01-22T11:58:08.828Z,100028.86
2019-01-22T12:03:24.127Z,100018.03
2019-01-22T12:05:53.337Z,100018.79
2019-01-22T12:08:23.303Z,100011.48
2019-01-22T12:10:52.114Z,100005.42
2019-01-22T12:13:20.735Z,99998.17
2019-01-22T12:15:49.415Z,99987.05
2019-01-22T12:18:18.160Z,99985.13
2019-01-22T12:20:48.331Z,99979.14
2019-01-22T12:23:17.026Z,99972.87
2019-01-22T12:25:45.710Z,99969.10
2019-01-22T12:28:14.829Z,99965.34
2019-01-22T12:30:43.611Z,99953.39
2019-01-22T12:33:12.534Z,99950.91
2019-01-22T12:35:41.314Z,99947.14
2019-01-22T12:38:10.003Z,99941.56
2019-01-22T12:40:38.697Z,99938.14
2019-01-22T12:43:07.645Z,99927.00
2019-01-22T12:45:38.186Z,99926.60
2019-01-22T12:48:07.884Z,99911.89
2019-01-22T12:53:45.867Z,99904.95
2019-01-22T12:56:15.347Z,99893.03
2019-01-22T12:58:44.077Z,99890.66
2019-01-22T13:01:12.709Z,99884.25
2019-01-22T13:03:41.383Z,99878.53
2019-01-22T13:06:10.090Z,99872.73
2019-01-22T13:08:38.744Z,99871.42
2019-01-22T13:11:07.437Z,99861.75
2019-01-22T13:13:36.079Z,99855.74
2019-01-22T13:16:04.913Z,99853.73
2019-01-22T13:18:33.559Z,99847.23
2019-01-22T13:21:02.258Z,99838.80
2019-01-22T13:23:31.002Z,99834.67
2019-01-22T13:25:59.699Z,99834.27
2019-01-22T13:28:28.397Z,99828.30
2019-01-22T13:30:57.257Z,99817.83
2019-01-22T13:36:21.194Z,99821.05
2019-01-22T13:38:49.871Z,99806.02
2019-01-22T13:41:18.480Z,99805.66
2019-01-22T13:43:47.235Z,99802.48
2019-01-22T13:46:15.837Z,99793.08
2019-01-22T13:48:44.506Z,99787.50
2019-01-22T13:51:13.174Z,99785.07
2019-01-22T13:53:41.938Z,99781.82
2019-01-22T13:56:10.573Z,99782.03
2019-01-22T13:58:39.230Z,99766.97
2019-01-22T14:01:07.879Z,99765.48
2019-01-22T14:03:36.537Z,99765.75
2019-01-22T14:06:05.252Z,99758.73
2019-01-22T14:08:33.937Z,99751.88
2019-01-22T14:11:02.572Z,99751.24
2019-01-22T14:13:31.215Z,99748.14
2019-01-22T14:15:59.957Z,99740.11
2019-01-22T14:18:28.687Z,99738.98
2019-01-22T14:20:57.319Z,99733.48
2019-01-22T14:23:25.979Z,99734.53
2019-01-22T14:25:54.657Z,99730.83
2019-01-22T14:28:23.302Z,99729.88
2019-01-22T14:30:51.970Z,99727.11
2019-01-22T14:33:20.769Z,99723.82
2019-01-22T14:35:49.504Z,99710.02
2019-01-22T14:38:18.249Z,99709.34
2019-01-22T14:40:47.067Z,99712.58
2019-01-22T14:43:15.709Z,99706.34
2019-01-22T14:45:44.336Z,99712.00
2019-01-22T14:48:12.957Z,99702.94
2019-01-22T14:50:41.712Z,99702.18
2019-01-22T14:53:10.400Z,99698.31
2019-01-22T14:55:39.048Z,99695.41
2019-01-22T14:58:07.827Z,99687.73
2019-01-22T15:00:36.574Z,99689.68
2019-01-22T15:03:26.012Z,99689.31
2019-01-22T15:05:54.683Z,99686.11
2019-01-22T15:08:23.306Z,99682.22
2019-01-22T15:10:51.970Z,99676.55
2019-01-22T15:13:20.650Z,99678.91
2019-01-22T15:15:49.326Z,99671.72
2019-01-22T15:18:18.011Z,99672.02
2019-01-22T15:20:46.676Z,99670.34
2019-01-22T15:23:15.330Z,99669.19
2019-01-22T15:25:44.029Z,99668.41
2019-01-22T15:28:12.780Z,99662.99
2019-01-22T15:30:41.425Z,99658.00
2019-01-22T15:33:10.140Z,99661.20
2019-01-22T15:35:38.855Z,99656.47
2019-01-22T15:38:07.476Z,99651.78
2019-01-22T15:40:36.214Z,99650.95
2019-01-22T15:43:04.913Z,99651.53
2019-01-22T15:45:33.613Z,99646.41
2019-01-22T15:48:05.048Z,99643.00
2019-01-22T15:50:33.915Z,99647.23
2019-01-22T15:53:02.717Z,99643.50
2019-01-22T15:56:12.155Z,99635.09
2019-01-22T15:58:40.809Z,99633.14
2019-01-22T16:01:09.520Z,99631.98
2019-01-22T16:03:38.149Z,99620.92
2019-01-22T16:06:06.876Z,99622.39
2019-01-22T16:08:35.500Z,99618.59
2019-01-22T16:11:04.386Z,99618.11
2019-01-22T16:13:33.022Z,99612.66
2019-01-22T16:16:01.738Z,99615.14
2019-01-22T16:18:30.364Z,99610.95
2019-01-22T16:20:59.034Z,99607.05
2019-01-22T16:23:27.656Z,99606.03
2019-01-22T16:25:56.350Z,99598.08
2019-01-22T16:28:24.994Z,99597.34
2019-01-22T16:30:53.708Z,99596.66
2019-01-22T16:33:22.482Z,99597.02
2019-01-22T16:35:51.146Z,99590.63
2019-01-22T16:38:19.760Z,99587.81
2019-01-22T16:40:48.538Z,99589.55
2019-01-22T16:43:17.144Z,99582.91
2019-01-22T16:45:45.849Z,99581.18
2019-01-22T16:48:14.498Z,99582.48
2019-01-22T16:50:43.509Z,99575.56
2019-01-22T16:53:18.317Z,99585.95
2019-01-22T16:55:47.295Z,99585.38
2019-01-22T16:58:16.068Z,99570.48
2019-01-22T17:03:59.190Z,99571.30
2019-01-22T17:06:27.899Z,99575.12
2019-01-22T17:08:59.432Z,99568.39
2019-01-22T17:11:28.462Z,99572.53
2019-01-22T17:13:57.703Z,99565.81
2019-01-22T17:16:27.068Z,99561.05
2019-01-22T17:18:55.994Z,99549.02
2019-01-22T17:24:17.560Z,99558.91
2019-01-22T17:27:07.353Z,99549.94
2019-01-22T17:29:38.105Z,99552.96
2019-01-22T17:37:51.063Z,99534.05
2019-01-22T17:40:19.855Z,99537.36
2019-01-22T17:42:48.828Z,99531.14
2019-01-22T17:50:41.330Z,99523.98
2019-01-22T17:53:10.983Z,99521.52
2019-01-22T17:55:39.825Z,99515.47
2019-01-22T17:58:08.908Z,99517.53
2019-01-22T18:03:40.535Z,99508.27
2019-01-22T18:06:09.566Z,99507.66
2019-01-22T18:08:39.026Z,99500.78
2019-01-22T18:11:08.003Z,99498.16
2019-01-22T18:13:37.159Z,99495.61
2019-01-22T18:16:06.518Z,99491.31
2019-01-22T18:18:35.342Z,99492.78
2019-01-22T18:21:04.153Z,99479.61
2019-01-22T18:23:33.047Z,99483.63
2019-01-22T18:26:01.846Z,99485.57
2019-01-22T18:28:32.467Z,99479.09
2019-01-22T18:31:01.677Z,99477.55
2019-01-22T18:33:30.600Z,99484.70
2019-01-22T18:36:01.883Z,99476.83
2019-01-22T18:38:30.759Z,99473.37
2019-01-22T18:40:59.774Z,99468.16
2019-01-22T18:43:28.520Z,99465.96
2019-01-22T18:45:57.406Z,99463.22
2019-01-22T18:48:29.444Z,99466.56
2019-01-22T18:50:59.343Z,99459.08
2019-01-22T18:53:28.163Z,99463.94
2019-01-22T18:56:00.124Z,99457.33
2019-01-22T18:58:28.990Z,99459.20
2019-01-22T19:00:57.796Z,99461.03
2019-01-22T19:03:26.611Z,99460.83
2019-01-22T19:05:55.571Z,99461.71
2019-01-22T19:08:24.565Z,99450.01
2019-01-22T19:10:53.386Z,99446.63
2019-01-22T19:13:22.537Z,99452.00
2019-01-22T19:15:51.409Z,99447.93
2019-01-22T19:18:20.659Z,99442.16
2019-01-22T19:20:49.460Z,99447.70
2019-01-22T19:23:18.461Z,99436.44
2019-01-22T19:25:47.304Z,99436.91
2019-01-22T19:28:16.021Z,99428.81
2019-01-22T19:30:44.976Z,99430.73
2019-01-22T19:33:13.887Z,99427.98
2019-01-22T19:35:42.777Z,99422.44
2019-01-22T19:38:11.561Z,99419.46
2019-01-22T19:40:40.411Z,99425.96
2019-01-22T19:43:09.423Z,99418.84
2019-01-22T19:45:38.999Z,99417.62
2019-01-22T19:48:08.019Z,99420.16
2019-01-22T19:50:36.959Z,99405.78
2019-01-22T19:56:13.184Z,99400.84
2019-01-22T20:01:39.820Z,99392.42
2019-01-22T20:04:08.707Z,99387.11
2019-01-22T20:07:03.599Z,99387.20
2019-01-22T20:09:32.969Z,99371.80
2019-01-22T20:12:01.838Z,99374.94
2019-01-22T20:17:30.333Z,99369.04
2019-01-22T20:19:59.358Z,99371.47
2019-01-22T20:23:07.957Z,99367.59
2019-01-22T20:25:37.571Z,99366.63
2019-01-22T20:28:06.770Z,99365.29
2019-01-22T20:30:39.919Z,99360.87
2019-01-22T20:33:09.169Z,99352.58
2019-01-22T20:41:36.051Z,99353.95
2019-01-22T20:44:05.036Z,99342.94
2019-01-22T20:46:33.931Z,99349.95
2019-01-22T20:49:02.800Z,99344.58
2019-01-22T20:51:52.125Z,99347.55
2019-01-22T20:54:23.566Z,99337.53
2019-01-22T20:56:52.497Z,99345.06
2019-01-22T20:59:21.297Z,99345.06
2019-01-22T21:01:50.156Z,99341.75
2019-01-22T21:04:19.403Z,99341.36
2019-01-22T21:06:48.622Z,99340.22
2019-01-22T21:09:38.371Z,99341.66
2019-01-22T21:12:45.778Z,99333.72
2019-01-22T21:15:14.771Z,99339.45
2019-01-22T21:17:44.013Z,99336.70
2019-01-22T21:20:16.260Z,99331.00
2019-01-22T21:23:04.577Z,99325.55
2019-01-22T21:25:33.504Z,99327.56
2019-01-22T21:33:12.652Z,99321.11
2019-01-22T21:35:41.668Z,99324.27
2019-01-22T21:38:10.704Z,99321.88
2019-01-22T21:40:39.917Z,99317.92
2019-01-22T21:45:56.736Z,99312.75
2019-01-22T21:48:25.696Z,99305.63
2019-01-22T21:50:54.553Z,99303.27
2019-01-22T21:53:23.398Z,99306.31
2019-01-22T21:56:11.462Z,99301.92
2019-01-22T21:58:40.337Z,99300.19
2019-01-22T22:01:09.446Z,99289.80
2019-01-22T22:03:38.382Z,99293.86
2019-01-22T22:06:07.369Z,99281.06
2019-01-22T22:08:36.251Z,99290.79
2019-01-22T22:14:19.431Z,99286.56
2019-01-22T22:19:36.316Z,99283.91
2019-01-22T22:22:05.160Z,99278.91
2019-01-22T22:24:35.358Z,99270.08
2019-01-22T22:28:39.378Z,99267.91
2019-01-22T22:31:08.965Z,99265.83
2019-01-22T22:33:37.718Z,99255.43
2019-01-22T22:36:06.866Z,99253.55
2019-01-22T22:38:35.737Z,99255.20
2019-01-22T22:41:04.601Z,99256.90
2019-01-22T22:43:33.279Z,99250.39
2019-01-22T22:46:01.976Z,99237.27
2019-01-22T22:48:31.300Z,99237.05
2019-01-22T22:54:13.419Z,99229.13
2019-01-22T22:56:42.213Z,99233.06
2019-01-22T22:59:11.078Z,99226.02
2019-01-22T23:01:39.959Z,99227.25
2019-01-22T23:04:08.840Z,99222.56
2019-01-22T23:06:37.824Z,99215.70
2019-01-22T23:09:25.903Z,99221.78
2019-01-22T23:11:55.083Z,99213.62
2019-01-22T23:16:59.661Z,99211.71
2019-01-22T23:19:28.687Z,99209.57
2019-01-22T23:21:57.800Z,99206.67
2019-01-22T23:24:45.841Z,99201.93
2019-01-22T23:27:14.970Z,99194.92
2019-01-22T23:29:43.794Z,99191.09
2019-01-22T23:32:14.019Z,99185.01
2019-01-22T23:35:00.358Z,99187.00
2019-01-22T23:37:28.924Z,99189.34
2019-01-22T23:39:57.592Z,99180.89
2019-01-22T23:42:26.277Z,99175.59
2019-01-22T23:44:55.135Z,99164.57
2019-01-22T23:47:23.772Z,99170.95
2019-01-22T23:49:52.400Z,99165.41
2019-01-22T23:52:21.041Z,99155.06
2019-01-22T23:54:49.661Z,99156.41
2019-01-22T23:57:18.519Z,99149.67
